createdAt,value
2018-08-19T00:00:56.867Z,96.80
2018-08-19T00:03:24.518Z,96.90
2018-08-19T00:05:52.321Z,97.10
2018-08-19T00:08:19.867Z,97.20
2018-08-19T00:11:06.947Z,97.30
2018-08-19T00:13:35.606Z,97.40
2018-08-19T00:16:03.637Z,97.40
2018-08-19T00:18:31.300Z,97.50
2018-08-19T00:20:59.823Z,97.60
2018-08-19T00:23:34.753Z,97.60
2018-08-19T00:26:02.798Z,97.60
2018-08-19T00:28:30.835Z,97.70
2018-08-19T00:30:58.481Z,97.80
2018-08-19T00:33:26.051Z,97.90
2018-08-19T00:35:53.633Z,98.00
2018-08-19T00:38:21.584Z,98.40
2018-08-19T00:40:49.133Z,98.20
2018-08-19T00:43:16.667Z,98.20
2018-08-19T00:45:44.231Z,98.20
2018-08-19T00:48:12.207Z,98.30
2018-08-19T00:50:40.162Z,98.30
2018-08-19T00:53:08.805Z,98.40
2018-08-19T00:55:42.035Z,98.50
2018-08-19T00:58:18.165Z,98.50
2018-08-19T01:00:45.789Z,98.60
2018-08-19T01:03:13.603Z,98.60
2018-08-19T01:05:41.173Z,98.70
2018-08-19T01:08:09.904Z,98.70
2018-08-19T01:10:37.768Z,98.70
2018-08-19T01:13:05.423Z,98.70
2018-08-19T01:15:32.973Z,98.70
2018-08-19T01:18:00.639Z,98.70
2018-08-19T01:20:29.218Z,98.80
2018-08-19T01:22:56.773Z,98.90
2018-08-19T01:25:24.401Z,98.90
2018-08-19T01:27:52.113Z,99.00
2018-08-19T01:30:22.067Z,99.10
2018-08-19T01:32:49.665Z,99.20
2018-08-19T01:35:17.669Z,99.30
2018-08-19T01:37:45.324Z,99.30
2018-08-19T01:40:16.599Z,99.30
2018-08-19T01:42:44.761Z,99.30
2018-08-19T01:45:12.408Z,99.10
2018-08-19T01:47:39.984Z,99.10
2018-08-19T01:50:11.110Z,99.10
2018-08-19T01:52:39.104Z,99.10
2018-08-19T01:55:07.100Z,99.20
2018-08-19T01:57:40.264Z,99.20
2018-08-19T02:00:08.962Z,99.20
2018-08-19T02:02:51.241Z,99.40
2018-08-19T02:05:19.200Z,99.50
2018-08-19T02:07:46.828Z,99.40
2018-08-19T02:10:14.474Z,99.50
2018-08-19T02:12:42.008Z,99.50
2018-08-19T02:15:10.104Z,99.50
2018-08-19T02:17:42.881Z,99.50
2018-08-19T02:20:10.804Z,99.60
2018-08-19T02:22:39.142Z,99.60
2018-08-19T02:25:06.910Z,99.60
2018-08-19T02:27:34.461Z,99.70
2018-08-19T02:30:01.979Z,99.70
2018-08-19T02:32:30.340Z,99.70
2018-08-19T02:34:57.892Z,99.70
2018-08-19T02:37:25.451Z,99.70
2018-08-19T02:39:53.024Z,99.70
2018-08-19T02:42:26.721Z,99.80
2018-08-19T02:45:00.782Z,99.80
2018-08-19T02:47:28.539Z,99.80
2018-08-19T02:49:56.138Z,99.80
2018-08-19T02:52:27.435Z,99.90
2018-08-19T02:54:56.325Z,99.90
2018-08-19T02:57:24.053Z,99.90
2018-08-19T02:59:51.665Z,99.90
2018-08-19T03:02:26.520Z,99.90
2018-08-19T03:04:54.953Z,99.90
2018-08-19T03:07:24.857Z,99.90
2018-08-19T03:09:58.127Z,99.90
2018-08-19T03:12:26.880Z,99.90
2018-08-19T03:14:55.052Z,99.90
2018-08-19T03:17:23.234Z,99.90
2018-08-19T03:19:51.854Z,99.90
2018-08-19T03:22:19.511Z,99.90
2018-08-19T03:24:47.075Z,99.90
2018-08-19T03:27:14.615Z,99.90
2018-08-19T03:29:47.630Z,99.90
2018-08-19T03:32:15.151Z,99.90
2018-08-19T03:34:42.714Z,99.90
2018-08-19T03:37:11.716Z,99.90
2018-08-19T03:39:39.249Z,99.90
2018-08-19T03:42:06.786Z,99.90
2018-08-19T03:44:34.338Z,99.90
2018-08-19T03:47:05.356Z,99.90
2018-08-19T03:49:32.933Z,99.90
2018-08-19T03:52:01.321Z,99.90
2018-08-19T03:54:29.618Z,99.90
2018-08-19T03:56:57.184Z,99.90
2018-08-19T03:59:24.736Z,99.90
2018-08-19T04:01:52.294Z,99.90
2018-08-19T04:04:19.841Z,99.90
2018-08-19T04:06:48.421Z,99.90
2018-08-19T04:09:15.943Z,99.90
2018-08-19T04:11:44.582Z,99.90
2018-08-19T04:14:24.938Z,99.90
2018-08-19T04:16:52.985Z,99.90
2018-08-19T04:19:22.759Z,99.90
2018-08-19T04:21:50.312Z,99.90
2018-08-19T04:24:17.824Z,99.90
2018-08-19T04:26:45.390Z,99.90
2018-08-19T04:29:31.931Z,99.90
2018-08-19T04:32:00.203Z,99.90
2018-08-19T04:34:27.735Z,99.90
2018-08-19T04:36:55.349Z,99.90
2018-08-19T04:39:22.915Z,99.90
2018-08-19T04:41:50.446Z,99.90
2018-08-19T04:44:17.997Z,99.90
2018-08-19T04:46:45.554Z,99.90
2018-08-19T04:49:14.117Z,99.80
2018-08-19T04:51:41.663Z,99.80
2018-08-19T04:54:09.219Z,99.60
2018-08-19T04:56:36.754Z,99.50
2018-08-19T04:59:04.483Z,99.60
2018-08-19T05:01:32.025Z,99.60
2018-08-19T05:03:59.597Z,99.30
2018-08-19T05:06:27.133Z,99.10
2018-08-19T05:08:54.683Z,99.10
2018-08-19T05:11:22.322Z,99.10
2018-08-19T05:13:49.863Z,99.10
2018-08-19T05:16:17.425Z,99.20
2018-08-19T05:18:49.842Z,99.00
2018-08-19T05:21:17.845Z,99.00
2018-08-19T05:23:46.294Z,98.70
2018-08-19T05:26:14.144Z,98.70
2018-08-19T05:28:44.420Z,98.60
2018-08-19T05:31:11.983Z,98.60
2018-08-19T05:33:41.429Z,98.70
2018-08-19T05:36:09.018Z,98.90
2018-08-19T05:38:36.554Z,99.00
2018-08-19T05:41:04.229Z,99.00
2018-08-19T05:43:31.838Z,98.80
2018-08-19T05:46:00.798Z,98.70
2018-08-19T05:48:29.178Z,98.90
2018-08-19T05:50:57.081Z,98.70
2018-08-19T05:53:24.677Z,98.70
2018-08-19T05:55:52.560Z,98.60
2018-08-19T05:58:20.346Z,98.50
2018-08-19T06:00:59.959Z,98.40
2018-08-19T06:03:27.634Z,98.30
2018-08-19T06:05:55.319Z,98.10
2018-08-19T06:08:22.866Z,98.00
2018-08-19T06:10:50.466Z,97.90
2018-08-19T06:13:17.982Z,97.90
2018-08-19T06:15:45.654Z,97.90
2018-08-19T06:18:13.256Z,97.90
2018-08-19T06:20:40.803Z,97.90
2018-08-19T06:23:08.342Z,97.80
2018-08-19T06:25:35.892Z,97.60
2018-08-19T06:28:03.540Z,97.00
2018-08-19T06:30:31.169Z,96.50
2018-08-19T06:32:59.342Z,95.70
2018-08-19T06:35:26.917Z,95.10
2018-08-19T06:37:54.478Z,94.70
2018-08-19T06:40:23.142Z,94.60
2018-08-19T06:42:50.713Z,94.40
2018-08-19T06:45:18.292Z,93.90
2018-08-19T06:47:45.865Z,93.70
2018-08-19T06:50:25.128Z,93.60
2018-08-19T06:52:53.536Z,93.30
2018-08-19T06:55:21.311Z,93.20
2018-08-19T06:57:48.976Z,93.10
2018-08-19T07:00:35.227Z,92.90
2018-08-19T07:03:04.253Z,92.80
2018-08-19T07:05:32.541Z,92.70
2018-08-19T07:08:01.178Z,92.60
2018-08-19T07:10:44.568Z,92.60
2018-08-19T07:13:14.373Z,92.50
2018-08-19T07:15:43.073Z,92.40
2018-08-19T07:18:12.734Z,92.30
2018-08-19T07:20:41.107Z,92.10
2018-08-19T07:23:09.313Z,92.00
2018-08-19T07:25:38.818Z,91.70
2018-08-19T07:28:07.681Z,91.50
2018-08-19T07:30:35.217Z,91.30
2018-08-19T07:33:02.861Z,91.00
2018-08-19T07:35:31.385Z,90.80
2018-08-19T07:37:59.644Z,90.40
2018-08-19T07:40:27.173Z,90.20
2018-08-19T07:42:54.785Z,90.20
2018-08-19T07:45:22.327Z,90.00
2018-08-19T07:47:50.085Z,89.30
2018-08-19T07:50:17.607Z,88.40
2018-08-19T07:52:45.165Z,88.20
2018-08-19T07:55:12.763Z,88.50
2018-08-19T07:57:40.853Z,87.70
2018-08-19T08:00:09.039Z,87.30
2018-08-19T08:02:36.691Z,87.20
2018-08-19T08:05:05.061Z,87.10
2018-08-19T08:07:32.794Z,86.50
2018-08-19T08:10:01.067Z,86.10
2018-08-19T08:12:29.626Z,86.00
2018-08-19T08:14:57.299Z,86.00
2018-08-19T08:17:26.094Z,85.30
2018-08-19T08:20:01.296Z,84.60
2018-08-19T08:22:29.663Z,84.30
2018-08-19T08:24:57.543Z,83.80
2018-08-19T08:27:25.178Z,84.40
2018-08-19T08:29:52.942Z,83.10
2018-08-19T08:32:20.542Z,82.40
2018-08-19T08:34:48.127Z,82.20
2018-08-19T08:37:15.736Z,81.90
2018-08-19T08:39:43.308Z,81.50
2018-08-19T08:42:10.868Z,81.70
2018-08-19T08:44:38.489Z,81.30
2018-08-19T08:47:08.714Z,80.70
2018-08-19T08:49:42.034Z,80.30
2018-08-19T08:52:15.986Z,79.20
2018-08-19T08:54:50.266Z,78.60
2018-08-19T08:57:18.982Z,78.60
2018-08-19T08:59:46.617Z,78.40
2018-08-19T09:02:14.188Z,78.50
2018-08-19T09:04:41.802Z,77.80
2018-08-19T09:07:09.504Z,77.40
2018-08-19T09:09:38.332Z,76.50
2018-08-19T09:12:05.944Z,76.20
2018-08-19T09:14:33.579Z,75.40
2018-08-19T09:17:01.302Z,73.90
2018-08-19T09:19:29.619Z,73.90
2018-08-19T09:21:57.232Z,72.50
2018-08-19T09:24:24.810Z,71.70
2018-08-19T09:26:52.488Z,70.70
2018-08-19T09:29:20.016Z,70.60
2018-08-19T09:31:47.670Z,69.80
2018-08-19T09:34:15.211Z,70.00
2018-08-19T09:36:42.788Z,70.20
2018-08-19T09:39:11.419Z,69.40
2018-08-19T09:41:39.014Z,68.60
2018-08-19T09:44:06.674Z,67.00
2018-08-19T09:46:34.233Z,66.60
2018-08-19T09:49:01.832Z,66.70
2018-08-19T09:51:29.924Z,66.50
2018-08-19T09:53:57.506Z,66.10
2018-08-19T09:56:30.833Z,64.70
2018-08-19T09:59:04.736Z,64.50
2018-08-19T10:01:38.086Z,64.50
2018-08-19T10:04:25.344Z,63.80
2018-08-19T10:07:01.581Z,62.60
2018-08-19T10:09:29.966Z,62.10
2018-08-19T10:11:57.561Z,62.40
2018-08-19T10:14:25.133Z,60.80
2018-08-19T10:16:52.765Z,59.70
2018-08-19T10:19:21.541Z,58.40
2018-08-19T10:21:49.113Z,57.20
2018-08-19T10:24:23.035Z,56.00
2018-08-19T10:26:50.677Z,55.20
2018-08-19T10:29:18.281Z,55.30
2018-08-19T10:31:52.022Z,54.20
2018-08-19T10:34:23.691Z,53.80
2018-08-19T10:36:51.223Z,52.60
2018-08-19T10:39:18.856Z,49.80
2018-08-19T10:41:46.425Z,50.10
2018-08-19T10:44:13.950Z,49.40
2018-08-19T10:46:42.455Z,49.20
2018-08-19T10:49:10.441Z,48.40
2018-08-19T10:51:40.474Z,47.80
2018-08-19T10:54:08.062Z,47.00
2018-08-19T10:56:35.721Z,45.50
2018-08-19T10:59:03.420Z,45.30
2018-08-19T11:01:31.010Z,45.30
2018-08-19T11:03:59.506Z,45.70
2018-08-19T11:06:27.130Z,45.60
2018-08-19T11:08:56.809Z,44.70
2018-08-19T11:11:26.194Z,44.00
2018-08-19T11:13:53.761Z,43.20
2018-08-19T11:16:21.346Z,42.50
2018-08-19T11:18:49.883Z,42.20
2018-08-19T11:21:25.099Z,41.30
2018-08-19T11:23:52.968Z,41.30
2018-08-19T11:26:20.593Z,42.90
2018-08-19T11:28:54.257Z,43.70
2018-08-19T11:31:27.733Z,45.00
2018-08-19T11:33:56.851Z,45.30
2018-08-19T11:36:31.679Z,45.20
2018-08-19T11:39:00.266Z,44.20
2018-08-19T11:48:17.228Z,41.60
2018-08-19T11:50:45.041Z,39.60
2018-08-19T11:53:12.596Z,39.30
2018-08-19T11:55:40.344Z,38.70
2018-08-19T11:58:07.962Z,38.00
2018-08-19T12:00:43.478Z,36.80
2018-08-19T12:03:11.106Z,36.20
2018-08-19T12:05:38.665Z,35.30
2018-08-19T12:08:06.561Z,35.30
2018-08-19T12:10:34.094Z,35.10
2018-08-19T12:13:01.684Z,35.60
2018-08-19T12:15:29.935Z,35.90
2018-08-19T12:17:57.506Z,36.30
2018-08-19T12:20:33.590Z,36.20
2018-08-19T12:23:01.149Z,36.20
2018-08-19T12:25:29.708Z,37.60
2018-08-19T12:27:57.251Z,37.50
2018-08-19T12:30:24.793Z,38.00
2018-08-19T12:33:02.447Z,36.20
2018-08-19T12:35:30.816Z,35.60
2018-08-19T12:37:59.016Z,34.70
2018-08-19T12:40:26.672Z,34.40
2018-08-19T12:42:54.313Z,34.30
2018-08-19T12:45:22.845Z,33.90
2018-08-19T12:47:50.408Z,32.10
2018-08-19T12:50:18.050Z,32.90
2018-08-19T12:52:45.672Z,34.00
2018-08-19T12:55:14.891Z,33.90
2018-08-19T12:57:43.001Z,33.60
2018-08-19T13:00:15.771Z,33.50
2018-08-19T13:02:44.686Z,32.90
2018-08-19T13:05:13.399Z,32.10
2018-08-19T13:07:40.939Z,31.10
2018-08-19T13:10:08.685Z,30.10
2018-08-19T13:12:41.982Z,31.00
2018-08-19T13:15:09.771Z,31.30
2018-08-19T13:17:37.497Z,31.10
2018-08-19T13:20:07.012Z,30.00
2018-08-19T13:22:39.544Z,30.00
2018-08-19T13:25:07.138Z,30.10
2018-08-19T13:27:34.710Z,30.60
2018-08-19T13:30:02.312Z,31.30
2018-08-19T13:32:30.851Z,32.30
2018-08-19T13:34:58.504Z,33.30
2018-08-19T13:37:26.110Z,33.30
2018-08-19T13:39:53.678Z,32.80
2018-08-19T13:42:21.356Z,31.60
2018-08-19T13:44:49.076Z,30.70
2018-08-19T13:47:16.646Z,30.70
2018-08-19T13:49:44.224Z,30.20
2018-08-19T13:52:11.794Z,30.30
2018-08-19T13:55:45.955Z,31.00
2018-08-19T13:58:13.525Z,31.80
2018-08-19T14:00:41.086Z,33.70
2018-08-19T14:03:16.065Z,35.00
2018-08-19T14:05:43.643Z,36.10
2018-08-19T14:08:11.192Z,36.40
2018-08-19T14:10:38.734Z,36.70
2018-08-19T14:13:06.288Z,35.90
2018-08-19T14:15:33.866Z,35.00
2018-08-19T14:18:01.462Z,34.20
2018-08-19T14:20:29.104Z,32.90
2018-08-19T14:22:56.704Z,31.60
2018-08-19T14:25:24.287Z,30.50
2018-08-19T14:27:51.848Z,30.40
2018-08-19T14:30:19.498Z,29.90
2018-08-19T14:32:47.777Z,29.70
2018-08-19T14:35:15.393Z,30.00
2018-08-19T14:37:43.036Z,29.80
2018-08-19T14:40:13.082Z,29.70
2018-08-19T14:42:40.632Z,29.30
2018-08-19T14:45:08.243Z,29.00
2018-08-19T14:47:35.843Z,28.90
2018-08-19T14:50:07.257Z,28.80
2018-08-19T14:52:34.856Z,28.80
2018-08-19T14:55:02.477Z,28.80
2018-08-19T14:57:30.638Z,28.90
2018-08-19T14:59:58.797Z,28.40
2018-08-19T15:02:26.420Z,28.30
2018-08-19T15:04:53.967Z,28.60
2018-08-19T15:07:21.518Z,28.60
2018-08-19T15:09:51.698Z,28.90
2018-08-19T15:12:21.470Z,28.40
2018-08-19T15:14:49.636Z,28.40
2018-08-19T15:17:17.222Z,28.10
2018-08-19T15:19:47.722Z,28.20
2018-08-19T15:22:15.670Z,28.20
2018-08-19T15:24:43.354Z,27.80
2018-08-19T15:27:10.942Z,27.60
2018-08-19T15:29:40.561Z,27.70
2018-08-19T15:32:08.355Z,27.80
2018-08-19T15:34:35.952Z,28.10
2018-08-19T15:37:03.641Z,27.70
2018-08-19T15:39:31.326Z,27.80
2018-08-19T15:41:59.625Z,27.70
2018-08-19T15:44:27.253Z,27.70
2018-08-19T15:46:54.826Z,28.20
2018-08-19T15:49:23.236Z,28.40
2018-08-19T15:51:50.981Z,28.30
2018-08-19T15:54:18.616Z,28.30
2018-08-19T15:56:46.209Z,27.90
2018-08-19T15:59:13.766Z,28.00
2018-08-19T16:01:41.368Z,27.70
2018-08-19T16:04:15.356Z,27.80
2018-08-19T16:06:44.654Z,28.00
2018-08-19T16:09:13.282Z,27.80
2018-08-19T16:11:41.096Z,27.70
2018-08-19T16:14:15.122Z,27.80
2018-08-19T16:16:42.718Z,28.20
2018-08-19T16:19:10.388Z,28.20
2018-08-19T16:21:37.948Z,28.00
2018-08-19T16:24:05.864Z,28.30
2018-08-19T16:26:33.454Z,28.60
2018-08-19T16:29:01.077Z,29.10
2018-08-19T16:31:29.184Z,29.50
2018-08-19T16:33:56.906Z,29.90
2018-08-19T16:36:24.488Z,30.10
2018-08-19T16:38:52.472Z,30.40
2018-08-19T16:41:20.208Z,30.80
2018-08-19T16:43:47.775Z,31.00
2018-08-19T16:46:15.393Z,31.40
2018-08-19T16:48:42.976Z,31.10
2018-08-19T16:51:10.553Z,30.40
2018-08-19T16:53:38.157Z,30.50
2018-08-19T16:56:05.973Z,30.90
2018-08-19T16:58:33.550Z,31.10
2018-08-19T17:01:01.134Z,30.80
2018-08-19T17:03:35.121Z,30.50
2018-08-19T17:06:03.253Z,30.90
2018-08-19T17:08:30.835Z,31.90
2018-08-19T17:10:58.502Z,32.80
2018-08-19T17:13:26.049Z,32.50
2018-08-19T17:15:53.775Z,32.90
2018-08-19T17:18:21.379Z,33.80
2018-08-19T17:20:48.989Z,33.80
2018-08-19T17:23:19.847Z,33.70
2018-08-19T17:25:47.491Z,33.90
2018-08-19T17:28:21.147Z,34.60
2018-08-19T17:30:49.963Z,34.50
2018-08-19T17:33:17.566Z,35.00
2018-08-19T17:35:47.123Z,35.60
2018-08-19T17:38:15.983Z,36.90
2018-08-19T17:40:43.591Z,38.40
2018-08-19T17:43:11.261Z,39.50
2018-08-19T17:45:38.941Z,40.20
2018-08-19T17:48:07.597Z,40.50
2018-08-19T17:50:37.147Z,41.40
2018-08-19T17:53:05.047Z,42.60
2018-08-19T17:55:32.661Z,43.30
2018-08-19T17:58:00.513Z,43.60
2018-08-19T18:00:28.112Z,44.10
2018-08-19T18:02:56.273Z,44.60
2018-08-19T18:05:23.985Z,45.00
2018-08-19T18:07:52.796Z,45.20
2018-08-19T18:10:20.414Z,46.20
2018-08-19T18:12:48.452Z,47.20
2018-08-19T18:15:16.154Z,48.20
2018-08-19T18:17:58.088Z,49.40
2018-08-19T18:20:29.434Z,50.60
2018-08-19T18:22:57.531Z,51.70
2018-08-19T18:25:25.429Z,52.90
2018-08-19T18:27:53.104Z,54.20
2018-08-19T18:30:22.930Z,54.80
2018-08-19T18:32:50.826Z,54.70
2018-08-19T18:35:19.066Z,54.80
2018-08-19T18:37:46.748Z,54.90
2018-08-19T18:40:32.956Z,55.30
2018-08-19T18:43:02.090Z,55.70
2018-08-19T18:45:31.048Z,55.70
2018-08-19T18:48:01.234Z,56.50
2018-08-19T18:50:29.400Z,57.00
2018-08-19T18:52:57.042Z,56.60
2018-08-19T18:55:24.986Z,56.80
2018-08-19T18:57:54.769Z,57.30
2018-08-19T19:00:24.661Z,57.80
2018-08-19T19:02:55.697Z,58.00
2018-08-19T19:05:33.264Z,58.70
2018-08-19T19:08:05.954Z,59.40
2018-08-19T19:10:33.573Z,59.60
2018-08-19T19:13:01.683Z,60.40
2018-08-19T19:15:33.323Z,61.40
2018-08-19T19:18:01.224Z,61.70
2018-08-19T19:20:30.189Z,61.40
2018-08-19T19:23:02.684Z,61.30
2018-08-19T19:25:37.948Z,60.90
2018-08-19T19:28:06.161Z,61.40
2018-08-19T19:30:34.404Z,61.80
2018-08-19T19:33:12.439Z,62.20
2018-08-19T19:35:40.216Z,62.90
2018-08-19T19:38:08.394Z,63.20
2018-08-19T19:40:36.236Z,63.40
2018-08-19T19:43:04.591Z,64.10
2018-08-19T19:45:55.049Z,65.00
2018-08-19T19:48:22.872Z,65.10
2018-08-19T19:50:50.982Z,65.20
2018-08-19T19:53:18.704Z,65.30
2018-08-19T19:55:46.315Z,66.10
2018-08-19T19:58:14.082Z,66.60
2018-08-19T20:00:52.909Z,66.70
2018-08-19T20:03:21.181Z,66.90
2018-08-19T20:05:48.840Z,67.20
2018-08-19T20:08:16.656Z,67.00
2018-08-19T20:10:44.324Z,67.50
2018-08-19T20:13:11.963Z,67.60
2018-08-19T20:15:39.664Z,67.80
2018-08-19T20:18:09.115Z,67.80
2018-08-19T20:20:37.869Z,67.80
2018-08-19T20:23:10.648Z,67.90
2018-08-19T20:25:39.020Z,68.20
2018-08-19T20:28:08.990Z,68.40
2018-08-19T20:30:37.904Z,69.30
2018-08-19T20:33:08.751Z,69.50
2018-08-19T20:35:36.364Z,69.50
2018-08-19T20:38:03.944Z,69.80
2018-08-19T20:40:31.574Z,70.20
2018-08-19T20:43:00.869Z,70.90
2018-08-19T20:45:28.502Z,71.60
2018-08-19T20:47:56.067Z,72.10
2018-08-19T20:50:24.290Z,72.30
2018-08-19T20:52:51.942Z,72.60
2018-08-19T20:55:19.512Z,72.90
2018-08-19T20:57:47.070Z,73.30
2018-08-19T21:00:14.758Z,73.70
2018-08-19T21:02:42.504Z,74.00
2018-08-19T21:05:10.524Z,74.50
2018-08-19T21:07:38.244Z,74.70
2018-08-19T21:10:07.041Z,75.20
2018-08-19T21:12:34.942Z,75.50
2018-08-19T21:15:02.540Z,75.70
2018-08-19T21:17:31.202Z,76.20
2018-08-19T21:19:59.596Z,76.70
2018-08-19T21:22:27.233Z,77.20
2018-08-19T21:24:54.787Z,78.20
2018-08-19T21:27:22.326Z,79.10
2018-08-19T21:29:49.912Z,79.90
2018-08-19T21:32:17.622Z,80.40
2018-08-19T21:34:45.720Z,80.80
2018-08-19T21:37:16.344Z,81.00
2018-08-19T21:39:44.218Z,81.30
2018-08-19T21:42:12.121Z,81.50
2018-08-19T21:44:39.673Z,81.70
2018-08-19T21:47:07.192Z,81.90
2018-08-19T21:49:34.931Z,82.10
2018-08-19T21:52:02.499Z,82.40
2018-08-19T21:54:30.816Z,82.60
2018-08-19T21:56:59.052Z,82.70
2018-08-19T21:59:26.623Z,82.90
2018-08-19T22:01:57.117Z,83.00
2018-08-19T22:04:24.828Z,83.30
2018-08-19T22:06:52.435Z,83.40
2018-08-19T22:09:34.170Z,83.60
2018-08-19T22:12:02.290Z,83.90
2018-08-19T22:14:31.127Z,84.30
2018-08-19T22:17:04.362Z,84.50
2018-08-19T22:19:32.186Z,84.90
2018-08-19T22:22:00.818Z,85.20
2018-08-19T22:24:28.896Z,85.40
2018-08-19T22:26:57.954Z,85.60
2018-08-19T22:29:25.502Z,85.90
2018-08-19T22:31:53.197Z,86.00
2018-08-19T22:34:20.732Z,86.30
2018-08-19T22:36:48.308Z,86.70
2018-08-19T22:39:17.202Z,86.90
2018-08-19T22:41:47.100Z,87.20
2018-08-19T22:44:14.758Z,87.50
2018-08-19T22:46:42.313Z,87.70
2018-08-19T22:49:09.854Z,87.90
2018-08-19T22:51:37.413Z,88.20
2018-08-19T22:54:04.961Z,88.60
2018-08-19T22:56:32.507Z,88.90
2018-08-19T22:59:00.762Z,89.20
2018-08-19T23:01:33.963Z,89.50
2018-08-19T23:04:02.255Z,89.60
2018-08-19T23:06:30.968Z,89.70
2018-08-19T23:08:58.922Z,90.00
2018-08-19T23:11:34.557Z,90.10
2018-08-19T23:14:13.587Z,90.10
2018-08-19T23:16:41.261Z,90.20
2018-08-19T23:19:08.805Z,90.30
2018-08-19T23:21:36.370Z,90.40
2018-08-19T23:24:04.119Z,90.50
2018-08-19T23:26:31.695Z,90.60
2018-08-19T23:28:59.590Z,90.60
2018-08-19T23:31:27.117Z,90.60
2018-08-19T23:33:54.669Z,90.60
2018-08-19T23:36:22.195Z,90.60
2018-08-19T23:38:49.723Z,90.60
2018-08-19T23:41:17.277Z,90.60
2018-08-19T23:43:44.859Z,90.60
2018-08-19T23:46:12.447Z,90.80
2018-08-19T23:48:39.972Z,90.80
2018-08-19T23:51:10.698Z,90.90
2018-08-19T23:53:38.306Z,91.00
2018-08-19T23:56:05.901Z,91.10
2018-08-19T23:58:33.433Z,91.10
